Andrus Island, California
Current Conditions -  °F | °C
As of 5:58 AM on Monday 22 Dec 2014 (Local Time) from KSUU Reporting Station
Overcast Overcast  
Wind Chill: 14°   Ceiling: 800
Heat Index: 14°   Visibility: 10mi
Dew Point: 12°   Wind: 2mph
Humidity: 92%   Direction: 10°N
Pressure: 30.25"   Gusts: NA
Location:  38.1457°N, 121.624°W
Report Text: KSUU 221358Z AUTO 01002KT 10SM OVC008 14/12 A3025 RMK AO2 SLP250 T01370124 $
Loading
Personal Weather Stations






























Interactive Weather Map New forecast layout! Learn more

10-Day Weather Forecast

Advertisements
Track Severe Weather on mobile